Time,TemperatureF,DewpointF,PressureIn,WindDirection,WindDirectionDegrees,WindSpeedMPH,WindSpeedGustMPH,Humidity,HourlyPrecipIn,Conditions,Clouds,dailyrainin,SolarRadiationWatts/m^2,SoftwareType,DateUTC
2013-01-19 00:02:00,48.0,-6.0,-100.00,SSW,194,7.0,11.0,10,-99.99,,,0.00,0.000000,,2013-01-19 08:02:00,
2013-01-19 00:12:00,48.0,-6.0,-100.00,SSW,194,7.0,11.0,10,-99.99,,,0.00,0.000000,,2013-01-19 08:12:00,
2013-01-19 00:22:00,48.0,-6.0,-100.00,SSW,194,7.0,11.0,10,-99.99,,,0.00,0.000000,,2013-01-19 08:22:00,
2013-01-19 00:53:00,47.0,-5.0,-100.00,SSE,155,4.0,14.0,11,0.00,,,0.00,0.000000,,2013-01-19 08:53:00,
2013-01-19 01:02:00,47.0,-5.0,-100.00,SSE,155,4.0,14.0,11,0.00,,,0.00,0.000000,,2013-01-19 09:02:00,
2013-01-19 01:12:00,47.0,-5.0,-100.00,SSE,155,4.0,14.0,11,0.00,,,0.00,0.000000,,2013-01-19 09:12:00,
2013-01-19 01:22:00,47.0,-5.0,-100.00,SSE,155,4.0,14.0,11,0.00,,,0.00,0.000000,,2013-01-19 09:22:00,
2013-01-19 01:53:00,48.0,-4.0,-100.00,SE,136,2.0,8.0,11,0.00,,,0.00,0.000000,,2013-01-19 09:53:00,
2013-01-19 02:02:00,48.0,-4.0,-100.00,SE,136,2.0,8.0,11,0.00,,,0.00,0.000000,,2013-01-19 10:02:00,
2013-01-19 02:12:00,48.0,-4.0,-100.00,SE,136,2.0,8.0,11,0.00,,,0.00,0.000000,,2013-01-19 10:12:00,
2013-01-19 02:22:00,48.0,-4.0,-100.00,SE,136,2.0,8.0,11,0.00,,,0.00,0.000000,,2013-01-19 10:22:00,
2013-01-19 02:53:00,48.0,-6.0,-100.00,SSE,168,4.0,7.0,10,-99.99,,,0.00,0.000000,,2013-01-19 10:53:00,
2013-01-19 03:02:00,48.0,-6.0,-100.00,SSE,168,4.0,7.0,10,-99.99,,,0.00,0.000000,,2013-01-19 11:02:00,
2013-01-19 04:53:00,49.0,-3.0,-100.00,NE,44,13.0,18.0,11,0.00,,,0.00,0.000000,,2013-01-19 12:53:00,
2013-01-19 05:02:00,49.0,-3.0,-100.00,NE,44,13.0,18.0,11,0.00,,,0.00,0.000000,,2013-01-19 13:02:00,
2013-01-19 05:53:00,48.0,-6.0,-100.00,NE,47,9.0,16.0,10,-99.99,,,0.00,0.000000,,2013-01-19 13:53:00,
2013-01-19 06:02:00,48.0,-6.0,-100.00,NE,47,9.0,16.0,10,-99.99,,,0.00,0.000000,,2013-01-19 14:02:00,
2013-01-19 06:12:00,48.0,-6.0,-100.00,NE,47,9.0,16.0,10,-99.99,,,0.00,0.000000,,2013-01-19 14:12:00,
2013-01-19 06:22:00,48.0,-6.0,-100.00,NE,47,9.0,16.0,10,-99.99,,,0.00,0.000000,,2013-01-19 14:22:00,
2013-01-19 06:53:00,49.0,-3.0,-100.00,NNE,18,24.0,33.0,11,-99.99,,,0.00,0.000000,,2013-01-19 14:53:00,
2013-01-19 07:03:00,49.0,-3.0,-100.00,NNE,18,24.0,33.0,11,-99.99,,,0.00,0.000000,,2013-01-19 15:03:00,
2013-01-19 07:53:00,45.0,-5.0,-100.00,NNE,22,20.0,31.0,12,-99.99,,,0.00,5.000000,,2013-01-19 15:53:00,
2013-01-19 08:03:00,45.0,-5.0,-100.00,NNE,22,20.0,31.0,12,-99.99,,,0.00,5.000000,,2013-01-19 16:03:00,
2013-01-19 08:26:00,46.0,-4.0,-100.00,NNE,26,16.0,25.0,12,0.00,,,0.00,182.000000,,2013-01-19 16:26:00,
2013-01-19 08:54:00,46.0,-4.0,-100.00,NNE,26,16.0,25.0,12,0.00,,,0.00,182.000000,,2013-01-19 16:54:00,
2013-01-19 09:02:00,46.0,-4.0,-100.00,NNE,26,16.0,25.0,12,0.00,,,0.00,182.000000,,2013-01-19 17:02:00,
2013-01-19 09:14:00,46.0,-4.0,-100.00,NNE,26,16.0,25.0,12,0.00,,,0.00,182.000000,,2013-01-19 17:14:00,
2013-01-19 09:54:00,50.0,-2.0,-100.00,NE,40,11.0,31.0,11,0.00,,,0.00,414.000000,,2013-01-19 17:54:00,
2013-01-19 10:13:00,50.0,-2.0,-100.00,NE,40,11.0,31.0,11,0.00,,,0.00,414.000000,,2013-01-19 18:13:00,
2013-01-19 10:23:00,50.0,-2.0,-100.00,NE,40,11.0,31.0,11,0.00,,,0.00,414.000000,,2013-01-19 18:23:00,
2013-01-19 10:59:00,48.0,0.0,-100.00,NNE,29,16.0,25.0,13,0.00,,,0.00,604.000000,,2013-01-19 18:59:00,
2013-01-19 11:05:00,48.0,0.0,-100.00,NNE,29,16.0,25.0,13,0.00,,,0.00,604.000000,,2013-01-19 19:05:00,
2013-01-19 11:17:00,48.0,0.0,-100.00,NNE,29,16.0,25.0,13,0.00,,,0.00,604.000000,,2013-01-19 19:17:00,
2013-01-19 11:25:00,48.0,0.0,-100.00,NNE,29,16.0,25.0,13,0.00,,,0.00,604.000000,,2013-01-19 19:25:00,
2013-01-19 11:55:00,58.0,0.0,-100.00,ENE,67,5.0,23.0,9,0.00,,,-99.99,734.000000,,2013-01-19 19:55:00,
2013-01-19 12:15:00,58.0,0.0,-100.00,ENE,67,5.0,23.0,9,0.00,,,-99.99,734.000000,,2013-01-19 20:15:00,
2013-01-19 12:23:00,58.0,0.0,-100.00,ENE,67,5.0,23.0,9,0.00,,,-99.99,734.000000,,2013-01-19 20:23:00,
2013-01-19 13:04:00,57.0,-1.0,-100.00,ENE,77,6.0,15.0,9,0.00,,,0.00,787.000000,,2013-01-19 21:04:00,
2013-01-19 13:13:00,57.0,-1.0,-100.00,ENE,77,6.0,15.0,9,0.00,,,0.00,787.000000,,2013-01-19 21:13:00,
2013-01-19 13:23:00,57.0,-1.0,-100.00,ENE,77,6.0,15.0,9,0.00,,,0.00,787.000000,,2013-01-19 21:23:00,
2013-01-19 13:59:00,57.0,-1.0,-100.00,East,92,7.0,17.0,9,0.00,,,0.00,758.000000,,2013-01-19 21:59:00,
2013-01-19 14:08:00,57.0,-1.0,-100.00,East,92,7.0,17.0,9,0.00,,,0.00,758.000000,,2013-01-19 22:08:00,
2013-01-19 14:15:00,57.0,-1.0,-100.00,East,92,7.0,17.0,9,0.00,,,0.00,758.000000,,2013-01-19 22:15:00,
2013-01-19 14:23:00,57.0,-1.0,-100.00,East,92,7.0,17.0,9,0.00,,,0.00,758.000000,,2013-01-19 22:23:00,
2013-01-19 15:09:00,60.0,-1.0,-100.00,ESE,118,1.0,9.0,8,0.00,,,0.00,652.000000,,2013-01-19 23:09:00,
2013-01-19 15:23:00,60.0,-1.0,-100.00,ESE,118,1.0,9.0,8,0.00,,,0.00,652.000000,,2013-01-19 23:23:00,
2013-01-19 16:07:00,61.0,2.0,-100.00,SSW,200,5.0,10.0,9,0.00,,,0.00,477.000000,,2013-01-20 00:07:00,
2013-01-19 16:55:00,55.0,-1.0,-100.00,SSW,196,1.0,7.0,10,0.00,,,0.00,238.000000,,2013-01-20 00:55:00,
2013-01-19 17:03:00,55.0,-1.0,-100.00,SSW,196,1.0,7.0,10,0.00,,,0.00,238.000000,,2013-01-20 01:03:00,
2013-01-19 17:15:00,55.0,-1.0,-100.00,SSW,196,1.0,7.0,10,0.00,,,0.00,238.000000,,2013-01-20 01:15:00,
2013-01-19 17:23:00,55.0,-1.0,-100.00,SSW,196,1.0,7.0,10,0.00,,,0.00,238.000000,,2013-01-20 01:23:00,
2013-01-19 18:03:00,49.0,0.0,-100.00,South,175,0.0,3.0,13,0.00,,,0.00,9.000000,,2013-01-20 02:03:00,
2013-01-19 18:13:00,49.0,0.0,-100.00,South,175,0.0,3.0,13,0.00,,,0.00,9.000000,,2013-01-20 02:13:00,
2013-01-19 18:23:00,49.0,0.0,-100.00,South,175,0.0,3.0,13,0.00,,,0.00,9.000000,,2013-01-20 02:23:00,
2013-01-19 18:58:00,48.0,-2.0,-100.00,WSW,241,0.0,0.0,12,0.00,,,0.00,0.000000,,2013-01-20 02:58:00,
2013-01-19 19:13:00,48.0,-2.0,-100.00,WSW,241,0.0,0.0,12,0.00,,,0.00,0.000000,,2013-01-20 03:13:00,
2013-01-19 19:22:00,48.0,-2.0,-100.00,WSW,241,0.0,0.0,12,0.00,,,0.00,0.000000,,2013-01-20 03:22:00,
2013-01-19 19:56:00,48.0,-2.0,-100.00,South,189,0.0,0.0,12,0.00,,,0.00,0.000000,,2013-01-20 03:56:00,
2013-01-19 20:04:00,48.0,-2.0,-100.00,South,189,0.0,0.0,12,0.00,,,0.00,0.000000,,2013-01-20 04:04:00,
2013-01-19 20:14:00,48.0,-2.0,-100.00,South,189,0.0,0.0,12,0.00,,,0.00,0.000000,,2013-01-20 04:14:00,
2013-01-19 20:22:00,48.0,-2.0,-100.00,South,189,0.0,0.0,12,0.00,,,0.00,0.000000,,2013-01-20 04:22:00,
2013-01-19 20:55:00,49.0,-5.0,-100.00,SSW,192,1.0,5.0,10,0.00,,,0.00,0.000000,,2013-01-20 04:55:00,
2013-01-19 21:03:00,49.0,-5.0,-100.00,SSW,192,1.0,5.0,10,0.00,,,0.00,0.000000,,2013-01-20 05:03:00,
2013-01-19 21:12:00,49.0,-5.0,-100.00,SSW,192,1.0,5.0,10,0.00,,,0.00,0.000000,,2013-01-20 05:12:00,
2013-01-19 21:22:00,49.0,-5.0,-100.00,SSW,192,1.0,5.0,10,0.00,,,0.00,0.000000,,2013-01-20 05:22:00,
2013-01-19 21:53:00,49.0,-5.0,-100.00,ESE,112,0.0,14.0,10,0.00,,,0.00,0.000000,,2013-01-20 05:53:00,
2013-01-19 22:02:00,49.0,-5.0,-100.00,ESE,112,0.0,14.0,10,0.00,,,0.00,0.000000,,2013-01-20 06:02:00,
2013-01-19 22:12:00,49.0,-5.0,-100.00,ESE,112,0.0,14.0,10,0.00,,,0.00,0.000000,,2013-01-20 06:12:00,
2013-01-19 22:22:00,49.0,-5.0,-100.00,ESE,112,0.0,14.0,10,0.00,,,0.00,0.000000,,2013-01-20 06:22:00,
2013-01-19 22:53:00,49.0,-5.0,-100.00,ENE,68,7.0,13.0,10,0.00,,,0.00,0.000000,,2013-01-20 06:53:00,
2013-01-19 23:02:00,49.0,-5.0,-100.00,ENE,68,7.0,13.0,10,0.00,,,0.00,0.000000,,2013-01-20 07:02:00,
2013-01-19 23:11:00,49.0,-5.0,-100.00,ENE,68,7.0,13.0,10,0.00,,,0.00,0.000000,,2013-01-20 07:11:00,
2013-01-19 23:52:00,50.0,-4.0,-100.00,SSE,165,0.0,10.0,10,-99.99,,,0.00,0.000000,,2013-01-20 07:52:00,